sensor_id;sensor_type;location;lat;lon;timestamp;temperature;humidity
44166;DHT22;30476;53.468;9.826;2022-09-28T00:01:08;10.40;99.90
44166;DHT22;30476;53.468;9.826;2022-09-28T00:03:35;10.30;99.90
44166;DHT22;30476;53.468;9.826;2022-09-28T00:06:03;10.30;99.90
44166;DHT22;30476;53.468;9.826;2022-09-28T00:08:29;10.30;99.90
44166;DHT22;30476;53.468;9.826;2022-09-28T00:10:56;10.30;99.90
44166;DHT22;30476;53.468;9.826;2022-09-28T00:13:23;10.20;99.90
44166;DHT22;30476;53.468;9.826;2022-09-28T00:16:07;10.20;99.90
44166;DHT22;30476;53.468;9.826;2022-09-28T00:18:33;10.20;99.90
44166;DHT22;30476;53.468;9.826;2022-09-28T00:23:38;10.20;99.90
44166;DHT22;30476;53.468;9.826;2022-09-28T00:26:29;10.10;99.90
44166;DHT22;30476;53.468;9.826;2022-09-28T00:28:57;10.20;99.90
44166;DHT22;30476;53.468;9.826;2022-09-28T00:31:24;10.10;99.90
44166;DHT22;30476;53.468;9.826;2022-09-28T00:33:51;10.10;99.90
44166;DHT22;30476;53.468;9.826;2022-09-28T00:36:18;10.10;99.90
44166;DHT22;30476;53.468;9.826;2022-09-28T00:38:44;10.10;99.90
44166;DHT22;30476;53.468;9.826;2022-09-28T00:41:11;10.00;99.90
44166;DHT22;30476;53.468;9.826;2022-09-28T00:43:36;10.10;99.90
44166;DHT22;30476;53.468;9.826;2022-09-28T00:46:11;10.00;99.90
44166;DHT22;30476;53.468;9.826;2022-09-28T00:48:41;10.00;99.90
44166;DHT22;30476;53.468;9.826;2022-09-28T00:51:10;10.00;99.90
44166;DHT22;30476;53.468;9.826;2022-09-28T00:53:39;10.00;99.90
44166;DHT22;30476;53.468;9.826;2022-09-28T00:56:10;10.00;99.90
44166;DHT22;30476;53.468;9.826;2022-09-28T00:58:46;10.00;99.90
44166;DHT22;30476;53.468;9.826;2022-09-28T01:01:14;9.90;99.90
44166;DHT22;30476;53.468;9.826;2022-09-28T01:03:40;9.90;99.90
44166;DHT22;30476;53.468;9.826;2022-09-28T01:06:14;9.90;99.90
44166;DHT22;30476;53.468;9.826;2022-09-28T01:08:41;9.90;99.90
44166;DHT22;30476;53.468;9.826;2022-09-28T01:11:09;9.90;99.90
44166;DHT22;30476;53.468;9.826;2022-09-28T01:13:35;9.90;99.90
44166;DHT22;30476;53.468;9.826;2022-09-28T01:21:12;9.80;99.90
44166;DHT22;30476;53.468;9.826;2022-09-28T01:26:41;9.80;99.90
44166;DHT22;30476;53.468;9.826;2022-09-28T01:32:37;9.80;99.90
44166;DHT22;30476;53.468;9.826;2022-09-28T01:35:14;9.80;99.90
44166;DHT22;30476;53.468;9.826;2022-09-28T01:37:55;9.80;99.90
44166;DHT22;30476;53.468;9.826;2022-09-28T01:40:23;9.80;99.90
44166;DHT22;30476;53.468;9.826;2022-09-28T01:42:55;9.70;99.90
44166;DHT22;30476;53.468;9.826;2022-09-28T01:45:27;9.70;99.90
44166;DHT22;30476;53.468;9.826;2022-09-28T01:47:59;9.70;99.90
44166;DHT22;30476;53.468;9.826;2022-09-28T01:50:28;9.70;99.90
44166;DHT22;30476;53.468;9.826;2022-09-28T01:53:05;9.80;99.90
44166;DHT22;30476;53.468;9.826;2022-09-28T01:55:43;9.70;99.90
44166;DHT22;30476;53.468;9.826;2022-09-28T01:58:24;9.80;99.90
44166;DHT22;30476;53.468;9.826;2022-09-28T02:00:56;9.70;99.90
44166;DHT22;30476;53.468;9.826;2022-09-28T02:03:33;9.70;99.90
44166;DHT22;30476;53.468;9.826;2022-09-28T02:06:10;9.70;99.90
44166;DHT22;30476;53.468;9.826;2022-09-28T02:08:48;9.70;99.90
44166;DHT22;30476;53.468;9.826;2022-09-28T02:11:17;9.70;99.90
44166;DHT22;30476;53.468;9.826;2022-09-28T02:13:50;9.70;99.90
44166;DHT22;30476;53.468;9.826;2022-09-28T02:16:31;9.70;99.90
44166;DHT22;30476;53.468;9.826;2022-09-28T02:18:59;9.70;99.90
44166;DHT22;30476;53.468;9.826;2022-09-28T02:24:07;9.70;99.90
44166;DHT22;30476;53.468;9.826;2022-09-28T02:26:38;9.70;99.90
44166;DHT22;30476;53.468;9.826;2022-09-28T02:29:05;9.70;99.90
44166;DHT22;30476;53.468;9.826;2022-09-28T02:31:31;9.70;99.90
44166;DHT22;30476;53.468;9.826;2022-09-28T02:33:58;9.60;99.90
44166;DHT22;30476;53.468;9.826;2022-09-28T02:36:25;9.60;99.90
44166;DHT22;30476;53.468;9.826;2022-09-28T02:38:53;9.60;99.90
44166;DHT22;30476;53.468;9.826;2022-09-28T02:41:29;9.60;99.90
44166;DHT22;30476;53.468;9.826;2022-09-28T02:46:51;9.60;99.90
44166;DHT22;30476;53.468;9.826;2022-09-28T02:49:40;9.60;99.90
44166;DHT22;30476;53.468;9.826;2022-09-28T02:52:32;9.50;99.90
44166;DHT22;30476;53.468;9.826;2022-09-28T02:55:25;9.50;99.90
44166;DHT22;30476;53.468;9.826;2022-09-28T03:03:56;9.40;99.90
44166;DHT22;30476;53.468;9.826;2022-09-28T03:06:44;9.40;99.90
44166;DHT22;30476;53.468;9.826;2022-09-28T03:09:23;9.40;99.90
44166;DHT22;30476;53.468;9.826;2022-09-28T03:11:57;9.40;99.90
44166;DHT22;30476;53.468;9.826;2022-09-28T03:14:25;9.40;99.90
44166;DHT22;30476;53.468;9.826;2022-09-28T03:16:51;9.40;99.90
44166;DHT22;30476;53.468;9.826;2022-09-28T03:19:21;9.30;99.90
44166;DHT22;30476;53.468;9.826;2022-09-28T03:21:48;9.30;99.90
44166;DHT22;30476;53.468;9.826;2022-09-28T03:24:14;9.20;99.90
44166;DHT22;30476;53.468;9.826;2022-09-28T03:26:40;9.30;99.90
44166;DHT22;30476;53.468;9.826;2022-09-28T03:29:06;9.30;99.90
44166;DHT22;30476;53.468;9.826;2022-09-28T03:31:32;9.30;99.90
44166;DHT22;30476;53.468;9.826;2022-09-28T03:33:57;9.30;99.90
44166;DHT22;30476;53.468;9.826;2022-09-28T03:36:23;9.30;99.90
44166;DHT22;30476;53.468;9.826;2022-09-28T03:38:51;9.30;99.90
44166;DHT22;30476;53.468;9.826;2022-09-28T03:41:20;9.20;99.90
44166;DHT22;30476;53.468;9.826;2022-09-28T03:43:46;9.20;99.90
44166;DHT22;30476;53.468;9.826;2022-09-28T03:46:12;9.20;99.90
44166;DHT22;30476;53.468;9.826;2022-09-28T03:48:38;9.20;99.90
44166;DHT22;30476;53.468;9.826;2022-09-28T03:51:06;9.10;99.90
44166;DHT22;30476;53.468;9.826;2022-09-28T03:53:34;9.10;99.90
44166;DHT22;30476;53.468;9.826;2022-09-28T03:56:09;9.00;99.90
44166;DHT22;30476;53.468;9.826;2022-09-28T03:58:36;9.10;99.90
44166;DHT22;30476;53.468;9.826;2022-09-28T04:01:04;9.00;99.90
44166;DHT22;30476;53.468;9.826;2022-09-28T04:03:30;9.00;99.90
44166;DHT22;30476;53.468;9.826;2022-09-28T04:05:56;9.00;99.90
44166;DHT22;30476;53.468;9.826;2022-09-28T04:08:22;8.90;99.90
44166;DHT22;30476;53.468;9.826;2022-09-28T04:10:48;8.90;99.90
44166;DHT22;30476;53.468;9.826;2022-09-28T04:13:14;8.90;99.90
44166;DHT22;30476;53.468;9.826;2022-09-28T04:15:41;8.80;99.90
44166;DHT22;30476;53.468;9.826;2022-09-28T04:18:11;8.90;99.90
44166;DHT22;30476;53.468;9.826;2022-09-28T04:20:38;8.80;99.90
44166;DHT22;30476;53.468;9.826;2022-09-28T04:23:06;8.80;99.90
44166;DHT22;30476;53.468;9.826;2022-09-28T04:25:32;8.80;99.90
44166;DHT22;30476;53.468;9.826;2022-09-28T04:27:57;8.80;99.90
44166;DHT22;30476;53.468;9.826;2022-09-28T04:30:42;8.90;99.90
44166;DHT22;30476;53.468;9.826;2022-09-28T04:33:08;8.80;99.90
44166;DHT22;30476;53.468;9.826;2022-09-28T04:35:33;8.90;99.90
44166;DHT22;30476;53.468;9.826;2022-09-28T04:37:59;8.90;99.90
44166;DHT22;30476;53.468;9.826;2022-09-28T04:40:25;8.90;99.90
44166;DHT22;30476;53.468;9.826;2022-09-28T04:42:55;8.90;99.90
44166;DHT22;30476;53.468;9.826;2022-09-28T04:45:22;8.90;99.90
44166;DHT22;30476;53.468;9.826;2022-09-28T04:47:48;8.90;99.90
44166;DHT22;30476;53.468;9.826;2022-09-28T04:50:14;8.80;99.90
44166;DHT22;30476;53.468;9.826;2022-09-28T04:52:39;8.90;99.90
44166;DHT22;30476;53.468;9.826;2022-09-28T04:55:06;8.80;99.90
44166;DHT22;30476;53.468;9.826;2022-09-28T04:57:34;8.80;99.90
44166;DHT22;30476;53.468;9.826;2022-09-28T05:00:00;8.80;99.90
44166;DHT22;30476;53.468;9.826;2022-09-28T05:02:26;8.80;99.90
44166;DHT22;30476;53.468;9.826;2022-09-28T05:04:54;8.80;99.90
44166;DHT22;30476;53.468;9.826;2022-09-28T05:07:21;8.80;99.90
44166;DHT22;30476;53.468;9.826;2022-09-28T05:09:46;8.70;99.90
44166;DHT22;30476;53.468;9.826;2022-09-28T05:12:12;8.70;99.90
44166;DHT22;30476;53.468;9.826;2022-09-28T05:14:38;8.70;99.90
44166;DHT22;30476;53.468;9.826;2022-09-28T05:17:04;8.70;99.90
44166;DHT22;30476;53.468;9.826;2022-09-28T05:19:29;8.70;99.90
44166;DHT22;30476;53.468;9.826;2022-09-28T05:21:55;8.70;99.90
44166;DHT22;30476;53.468;9.826;2022-09-28T05:24:23;8.70;99.90
44166;DHT22;30476;53.468;9.826;2022-09-28T05:26:48;8.70;99.90
44166;DHT22;30476;53.468;9.826;2022-09-28T05:29:14;8.70;99.90
44166;DHT22;30476;53.468;9.826;2022-09-28T05:31:40;8.70;99.90
44166;DHT22;30476;53.468;9.826;2022-09-28T05:34:06;8.70;99.90
44166;DHT22;30476;53.468;9.826;2022-09-28T05:36:32;8.70;99.90
44166;DHT22;30476;53.468;9.826;2022-09-28T05:38:57;8.70;99.90
44166;DHT22;30476;53.468;9.826;2022-09-28T05:41:23;8.70;99.90
44166;DHT22;30476;53.468;9.826;2022-09-28T05:43:49;8.70;99.90
44166;DHT22;30476;53.468;9.826;2022-09-28T05:46:16;8.70;99.90
44166;DHT22;30476;53.468;9.826;2022-09-28T05:48:43;8.60;99.90
44166;DHT22;30476;53.468;9.826;2022-09-28T05:51:08;8.60;99.90
44166;DHT22;30476;53.468;9.826;2022-09-28T05:53:35;8.60;99.90
44166;DHT22;30476;53.468;9.826;2022-09-28T05:56:01;8.70;99.90
44166;DHT22;30476;53.468;9.826;2022-09-28T05:58:27;8.70;99.90
44166;DHT22;30476;53.468;9.826;2022-09-28T06:00:54;8.70;99.90
44166;DHT22;30476;53.468;9.826;2022-09-28T06:03:20;8.70;99.90
44166;DHT22;30476;53.468;9.826;2022-09-28T06:05:46;8.60;99.90
44166;DHT22;30476;53.468;9.826;2022-09-28T06:08:12;8.70;99.90
44166;DHT22;30476;53.468;9.826;2022-09-28T06:10:39;8.70;99.90
44166;DHT22;30476;53.468;9.826;2022-09-28T06:13:05;8.80;99.90
44166;DHT22;30476;53.468;9.826;2022-09-28T06:15:33;8.80;99.90
44166;DHT22;30476;53.468;9.826;2022-09-28T06:18:05;8.80;99.90
44166;DHT22;30476;53.468;9.826;2022-09-28T06:20:34;8.80;99.90
44166;DHT22;30476;53.468;9.826;2022-09-28T06:23:00;8.90;99.90
44166;DHT22;30476;53.468;9.826;2022-09-28T06:25:26;8.80;99.90
44166;DHT22;30476;53.468;9.826;2022-09-28T06:28:07;8.80;99.90
44166;DHT22;30476;53.468;9.826;2022-09-28T06:30:34;8.90;99.90
44166;DHT22;30476;53.468;9.826;2022-09-28T06:33:04;8.90;99.90
44166;DHT22;30476;53.468;9.826;2022-09-28T06:35:30;8.90;99.90
44166;DHT22;30476;53.468;9.826;2022-09-28T06:37:57;8.90;99.90
44166;DHT22;30476;53.468;9.826;2022-09-28T06:40:24;8.90;99.90
44166;DHT22;30476;53.468;9.826;2022-09-28T06:43:01;9.00;99.90
44166;DHT22;30476;53.468;9.826;2022-09-28T06:45:29;9.00;99.90
44166;DHT22;30476;53.468;9.826;2022-09-28T06:47:59;8.90;99.90
44166;DHT22;30476;53.468;9.826;2022-09-28T06:50:27;8.90;99.90
44166;DHT22;30476;53.468;9.826;2022-09-28T06:52:55;9.00;99.90
44166;DHT22;30476;53.468;9.826;2022-09-28T06:55:21;9.00;99.90
44166;DHT22;30476;53.468;9.826;2022-09-28T06:57:59;9.00;99.90
44166;DHT22;30476;53.468;9.826;2022-09-28T07:00:26;9.00;99.90
44166;DHT22;30476;53.468;9.826;2022-09-28T07:02:52;9.10;99.90
44166;DHT22;30476;53.468;9.826;2022-09-28T07:05:18;9.00;99.90
44166;DHT22;30476;53.468;9.826;2022-09-28T07:07:46;9.00;99.90
44166;DHT22;30476;53.468;9.826;2022-09-28T07:10:12;9.10;99.90
44166;DHT22;30476;53.468;9.826;2022-09-28T07:12:37;9.10;99.90
44166;DHT22;30476;53.468;9.826;2022-09-28T07:15:05;9.10;99.90
44166;DHT22;30476;53.468;9.826;2022-09-28T07:17:32;9.10;99.90
44166;DHT22;30476;53.468;9.826;2022-09-28T07:19:59;9.10;99.90
44166;DHT22;30476;53.468;9.826;2022-09-28T07:22:25;9.10;99.90
44166;DHT22;30476;53.468;9.826;2022-09-28T07:24:51;9.20;99.90
44166;DHT22;30476;53.468;9.826;2022-09-28T07:27:16;9.20;99.90
44166;DHT22;30476;53.468;9.826;2022-09-28T07:29:42;9.20;99.90
44166;DHT22;30476;53.468;9.826;2022-09-28T07:32:08;9.30;99.90
44166;DHT22;30476;53.468;9.826;2022-09-28T07:34:34;9.30;99.90
44166;DHT22;30476;53.468;9.826;2022-09-28T07:37:09;9.40;99.90
44166;DHT22;30476;53.468;9.826;2022-09-28T07:39:37;9.40;99.90
44166;DHT22;30476;53.468;9.826;2022-09-28T07:42:23;9.50;99.90
44166;DHT22;30476;53.468;9.826;2022-09-28T07:44:52;9.50;99.90
44166;DHT22;30476;53.468;9.826;2022-09-28T07:47:19;9.50;99.90
44166;DHT22;30476;53.468;9.826;2022-09-28T07:49:54;9.60;99.90
44166;DHT22;30476;53.468;9.826;2022-09-28T07:52:22;9.60;99.90
44166;DHT22;30476;53.468;9.826;2022-09-28T07:54:54;9.70;99.90
44166;DHT22;30476;53.468;9.826;2022-09-28T07:57:21;9.70;99.90
44166;DHT22;30476;53.468;9.826;2022-09-28T07:59:47;9.70;99.90
44166;DHT22;30476;53.468;9.826;2022-09-28T08:02:15;9.80;99.90
44166;DHT22;30476;53.468;9.826;2022-09-28T08:04:42;9.80;99.90
44166;DHT22;30476;53.468;9.826;2022-09-28T08:07:09;9.90;99.90
44166;DHT22;30476;53.468;9.826;2022-09-28T08:09:35;9.90;99.90
44166;DHT22;30476;53.468;9.826;2022-09-28T08:12:02;10.00;99.90
44166;DHT22;30476;53.468;9.826;2022-09-28T08:14:30;10.00;99.90
44166;DHT22;30476;53.468;9.826;2022-09-28T08:17:01;10.10;99.90
44166;DHT22;30476;53.468;9.826;2022-09-28T08:19:27;10.10;99.90
44166;DHT22;30476;53.468;9.826;2022-09-28T08:22:13;10.20;99.90
44166;DHT22;30476;53.468;9.826;2022-09-28T08:24:39;10.20;99.90
44166;DHT22;30476;53.468;9.826;2022-09-28T08:27:05;10.30;99.90
44166;DHT22;30476;53.468;9.826;2022-09-28T08:29:31;10.30;99.90
44166;DHT22;30476;53.468;9.826;2022-09-28T08:31:57;10.30;99.90
44166;DHT22;30476;53.468;9.826;2022-09-28T08:34:25;10.40;99.90
44166;DHT22;30476;53.468;9.826;2022-09-28T08:36:52;10.40;99.90
44166;DHT22;30476;53.468;9.826;2022-09-28T08:39:18;10.50;99.90
44166;DHT22;30476;53.468;9.826;2022-09-28T08:44:20;10.60;99.90
44166;DHT22;30476;53.468;9.826;2022-09-28T08:46:54;10.70;99.90
44166;DHT22;30476;53.468;9.826;2022-09-28T08:52:11;10.80;99.90
44166;DHT22;30476;53.468;9.826;2022-09-28T08:57:17;11.00;99.90
44166;DHT22;30476;53.468;9.826;2022-09-28T09:05:03;11.20;99.90
44166;DHT22;30476;53.468;9.826;2022-09-28T09:07:58;11.20;99.90
44166;DHT22;30476;53.468;9.826;2022-09-28T09:10:48;11.30;99.90
44166;DHT22;30476;53.468;9.826;2022-09-28T09:13:47;11.30;99.90
44166;DHT22;30476;53.468;9.826;2022-09-28T09:16:42;11.40;99.90
44166;DHT22;30476;53.468;9.826;2022-09-28T09:22:09;11.50;99.90
44166;DHT22;30476;53.468;9.826;2022-09-28T09:24:47;11.60;99.90
44166;DHT22;30476;53.468;9.826;2022-09-28T09:30:10;11.70;99.90
44166;DHT22;30476;53.468;9.826;2022-09-28T09:38:27;11.90;99.90
44166;DHT22;30476;53.468;9.826;2022-09-28T09:44:17;12.00;99.90
44166;DHT22;30476;53.468;9.826;2022-09-28T09:46:59;12.00;99.90
44166;DHT22;30476;53.468;9.826;2022-09-28T09:49:45;12.00;99.90
44166;DHT22;30476;53.468;9.826;2022-09-28T09:52:26;12.10;99.90
44166;DHT22;30476;53.468;9.826;2022-09-28T09:55:13;12.10;99.90
44166;DHT22;30476;53.468;9.826;2022-09-28T09:57:43;12.10;99.90
44166;DHT22;30476;53.468;9.826;2022-09-28T10:00:14;12.20;99.90
44166;DHT22;30476;53.468;9.826;2022-09-28T10:02:42;12.30;99.90
44166;DHT22;30476;53.468;9.826;2022-09-28T10:10:32;12.70;99.90
44166;DHT22;30476;53.468;9.826;2022-09-28T10:12:58;12.90;99.90
44166;DHT22;30476;53.468;9.826;2022-09-28T10:15:29;13.10;99.90
44166;DHT22;30476;53.468;9.826;2022-09-28T10:18:08;13.30;99.90
44166;DHT22;30476;53.468;9.826;2022-09-28T10:20:39;13.50;99.90
44166;DHT22;30476;53.468;9.826;2022-09-28T10:23:14;13.60;99.90
44166;DHT22;30476;53.468;9.826;2022-09-28T10:25:42;13.70;99.90
44166;DHT22;30476;53.468;9.826;2022-09-28T10:28:17;13.70;99.90
44166;DHT22;30476;53.468;9.826;2022-09-28T10:30:43;13.90;99.90
44166;DHT22;30476;53.468;9.826;2022-09-28T10:33:29;13.90;99.70
44166;DHT22;30476;53.468;9.826;2022-09-28T10:35:55;14.00;99.30
44166;DHT22;30476;53.468;9.826;2022-09-28T10:38:21;14.10;99.60
44166;DHT22;30476;53.468;9.826;2022-09-28T10:41:07;14.20;98.90
44166;DHT22;30476;53.468;9.826;2022-09-28T10:43:50;14.30;98.50
44166;DHT22;30476;53.468;9.826;2022-09-28T10:46:32;14.30;98.00
44166;DHT22;30476;53.468;9.826;2022-09-28T10:49:01;14.50;99.10
44166;DHT22;30476;53.468;9.826;2022-09-28T10:51:51;14.50;99.60
44166;DHT22;30476;53.468;9.826;2022-09-28T10:54:23;14.80;99.40
44166;DHT22;30476;53.468;9.826;2022-09-28T10:56:51;14.90;99.10
44166;DHT22;30476;53.468;9.826;2022-09-28T11:02:02;15.40;99.70
44166;DHT22;30476;53.468;9.826;2022-09-28T11:04:39;15.50;98.50
44166;DHT22;30476;53.468;9.826;2022-09-28T11:07:19;15.70;98.60
44166;DHT22;30476;53.468;9.826;2022-09-28T11:09:49;15.80;97.70
44166;DHT22;30476;53.468;9.826;2022-09-28T11:12:33;16.00;97.30
44166;DHT22;30476;53.468;9.826;2022-09-28T11:15:05;16.20;96.40
44166;DHT22;30476;53.468;9.826;2022-09-28T11:17:38;16.30;95.60
44166;DHT22;30476;53.468;9.826;2022-09-28T11:22:53;16.50;96.10
44166;DHT22;30476;53.468;9.826;2022-09-28T11:25:27;16.60;96.10
44166;DHT22;30476;53.468;9.826;2022-09-28T11:27:56;16.80;96.10
44166;DHT22;30476;53.468;9.826;2022-09-28T11:30:24;17.00;96.00
44166;DHT22;30476;53.468;9.826;2022-09-28T11:32:53;17.30;95.50
44166;DHT22;30476;53.468;9.826;2022-09-28T11:41:05;17.80;94.10
44166;DHT22;30476;53.468;9.826;2022-09-28T11:48:57;18.30;92.10
44166;DHT22;30476;53.468;9.826;2022-09-28T11:51:30;18.60;91.50
44166;DHT22;30476;53.468;9.826;2022-09-28T11:54:04;18.80;90.50
44166;DHT22;30476;53.468;9.826;2022-09-28T11:56:42;19.00;89.50
44166;DHT22;30476;53.468;9.826;2022-09-28T11:59:26;18.90;86.50
44166;DHT22;30476;53.468;9.826;2022-09-28T12:02:14;18.80;89.30
44166;DHT22;30476;53.468;9.826;2022-09-28T12:07:33;18.70;91.00
44166;DHT22;30476;53.468;9.826;2022-09-28T12:10:17;18.80;90.70
44166;DHT22;30476;53.468;9.826;2022-09-28T12:12:58;18.90;90.90
44166;DHT22;30476;53.468;9.826;2022-09-28T12:15:49;19.10;90.60
44166;DHT22;30476;53.468;9.826;2022-09-28T12:20:46;19.50;88.40
44166;DHT22;30476;53.468;9.826;2022-09-28T12:23:14;19.50;83.80
44166;DHT22;30476;53.468;9.826;2022-09-28T12:26:02;19.40;84.50
44166;DHT22;30476;53.468;9.826;2022-09-28T12:28:41;19.50;86.10
44166;DHT22;30476;53.468;9.826;2022-09-28T12:31:15;19.50;87.50
44166;DHT22;30476;53.468;9.826;2022-09-28T12:33:47;19.70;85.10
44166;DHT22;30476;53.468;9.826;2022-09-28T12:41:52;19.80;82.80
44166;DHT22;30476;53.468;9.826;2022-09-28T12:47:36;19.30;82.90
44166;DHT22;30476;53.468;9.826;2022-09-28T12:53:20;19.00;83.70
44166;DHT22;30476;53.468;9.826;2022-09-28T13:04:29;18.70;86.50
44166;DHT22;30476;53.468;9.826;2022-09-28T13:07:19;18.80;85.00
44166;DHT22;30476;53.468;9.826;2022-09-28T13:10:01;18.80;85.30
44166;DHT22;30476;53.468;9.826;2022-09-28T13:15:41;18.90;84.00
44166;DHT22;30476;53.468;9.826;2022-09-28T13:18:38;18.90;83.30
44166;DHT22;30476;53.468;9.826;2022-09-28T13:24:15;18.90;85.00
44166;DHT22;30476;53.468;9.826;2022-09-28T13:26:45;19.00;83.90
44166;DHT22;30476;53.468;9.826;2022-09-28T13:29:13;19.00;83.20
44166;DHT22;30476;53.468;9.826;2022-09-28T13:31:53;19.20;82.30
44166;DHT22;30476;53.468;9.826;2022-09-28T13:34:27;19.30;82.80
44166;DHT22;30476;53.468;9.826;2022-09-28T13:39:57;19.40;80.00
44166;DHT22;30476;53.468;9.826;2022-09-28T13:42:34;19.40;80.40
44166;DHT22;30476;53.468;9.826;2022-09-28T13:50:52;19.50;81.30
44166;DHT22;30476;53.468;9.826;2022-09-28T13:56:35;19.40;79.90
44166;DHT22;30476;53.468;9.826;2022-09-28T14:01:43;19.20;77.60
44166;DHT22;30476;53.468;9.826;2022-09-28T14:04:15;19.00;79.40
44166;DHT22;30476;53.468;9.826;2022-09-28T14:07:13;18.90;78.90
44166;DHT22;30476;53.468;9.826;2022-09-28T14:09:46;19.00;79.00
44166;DHT22;30476;53.468;9.826;2022-09-28T14:14:58;18.80;76.70
44166;DHT22;30476;53.468;9.826;2022-09-28T14:19:58;18.70;79.60
44166;DHT22;30476;53.468;9.826;2022-09-28T14:22:30;18.60;79.70
44166;DHT22;30476;53.468;9.826;2022-09-28T14:25:02;18.50;79.30
44166;DHT22;30476;53.468;9.826;2022-09-28T14:32:41;18.20;78.90
44166;DHT22;30476;53.468;9.826;2022-09-28T14:35:48;18.10;80.40
44166;DHT22;30476;53.468;9.826;2022-09-28T14:38:22;18.00;79.40
44166;DHT22;30476;53.468;9.826;2022-09-28T14:44:07;17.60;78.30
44166;DHT22;30476;53.468;9.826;2022-09-28T14:46:35;17.40;79.70
44166;DHT22;30476;53.468;9.826;2022-09-28T14:49:04;17.30;82.00
44166;DHT22;30476;53.468;9.826;2022-09-28T14:54:19;17.00;83.60
44166;DHT22;30476;53.468;9.826;2022-09-28T14:59:41;16.60;85.40
44166;DHT22;30476;53.468;9.826;2022-09-28T15:02:16;16.50;86.20
44166;DHT22;30476;53.468;9.826;2022-09-28T15:04:54;16.30;86.20
44166;DHT22;30476;53.468;9.826;2022-09-28T15:07:29;16.20;87.20
44166;DHT22;30476;53.468;9.826;2022-09-28T15:09:59;16.10;88.00
44166;DHT22;30476;53.468;9.826;2022-09-28T15:12:28;16.00;88.40
44166;DHT22;30476;53.468;9.826;2022-09-28T15:14:58;15.90;88.90
44166;DHT22;30476;53.468;9.826;2022-09-28T15:17:34;15.80;89.10
44166;DHT22;30476;53.468;9.826;2022-09-28T15:22:35;15.60;89.90
44166;DHT22;30476;53.468;9.826;2022-09-28T15:25:03;15.60;90.10
44166;DHT22;30476;53.468;9.826;2022-09-28T15:27:38;15.50;89.20
44166;DHT22;30476;53.468;9.826;2022-09-28T15:30:22;15.50;88.90
44166;DHT22;30476;53.468;9.826;2022-09-28T15:32:49;15.50;89.50
44166;DHT22;30476;53.468;9.826;2022-09-28T15:35:19;15.40;89.60
44166;DHT22;30476;53.468;9.826;2022-09-28T15:37:49;15.30;90.20
44166;DHT22;30476;53.468;9.826;2022-09-28T15:42:54;15.30;89.50
44166;DHT22;30476;53.468;9.826;2022-09-28T15:45:46;15.20;89.00
44166;DHT22;30476;53.468;9.826;2022-09-28T15:51:09;15.20;89.90
44166;DHT22;30476;53.468;9.826;2022-09-28T15:56:17;15.10;90.30
44166;DHT22;30476;53.468;9.826;2022-09-28T15:58:43;15.00;90.40
44166;DHT22;30476;53.468;9.826;2022-09-28T16:01:34;15.00;90.50
44166;DHT22;30476;53.468;9.826;2022-09-28T16:07:24;14.90;91.20
44166;DHT22;30476;53.468;9.826;2022-09-28T16:10:00;14.80;91.40
44166;DHT22;30476;53.468;9.826;2022-09-28T16:12:55;14.70;91.70
44166;DHT22;30476;53.468;9.826;2022-09-28T16:15:26;14.60;92.00
44166;DHT22;30476;53.468;9.826;2022-09-28T16:20:26;14.50;92.50
44166;DHT22;30476;53.468;9.826;2022-09-28T16:22:55;14.40;92.60
44166;DHT22;30476;53.468;9.826;2022-09-28T16:25:23;14.30;92.70
44166;DHT22;30476;53.468;9.826;2022-09-28T16:27:52;14.20;92.80
44166;DHT22;30476;53.468;9.826;2022-09-28T16:30:29;14.10;92.90
44166;DHT22;30476;53.468;9.826;2022-09-28T16:33:27;14.10;93.10
44166;DHT22;30476;53.468;9.826;2022-09-28T16:35:53;14.00;93.40
44166;DHT22;30476;53.468;9.826;2022-09-28T16:38:19;13.90;93.60
44166;DHT22;30476;53.468;9.826;2022-09-28T16:40:49;13.90;93.60
44166;DHT22;30476;53.468;9.826;2022-09-28T16:43:25;13.80;93.90
44166;DHT22;30476;53.468;9.826;2022-09-28T16:45:53;13.70;93.80
44166;DHT22;30476;53.468;9.826;2022-09-28T16:48:29;13.60;93.90
44166;DHT22;30476;53.468;9.826;2022-09-28T16:50:57;13.60;93.80
44166;DHT22;30476;53.468;9.826;2022-09-28T16:53:23;13.50;93.90
44166;DHT22;30476;53.468;9.826;2022-09-28T16:56:08;13.50;94.20
44166;DHT22;30476;53.468;9.826;2022-09-28T16:58:35;13.40;94.40
44166;DHT22;30476;53.468;9.826;2022-09-28T17:01:01;13.30;94.50
44166;DHT22;30476;53.468;9.826;2022-09-28T17:03:27;13.30;94.60
44166;DHT22;30476;53.468;9.826;2022-09-28T17:05:53;13.30;94.70
44166;DHT22;30476;53.468;9.826;2022-09-28T17:08:23;13.20;95.20
44166;DHT22;30476;53.468;9.826;2022-09-28T17:10:57;13.10;95.10
44166;DHT22;30476;53.468;9.826;2022-09-28T17:13:26;13.00;95.10
44166;DHT22;30476;53.468;9.826;2022-09-28T17:15:59;13.00;95.10
44166;DHT22;30476;53.468;9.826;2022-09-28T17:18:26;12.90;95.20
44166;DHT22;30476;53.468;9.826;2022-09-28T17:20:54;12.80;95.10
44166;DHT22;30476;53.468;9.826;2022-09-28T17:23:21;12.70;95.20
44166;DHT22;30476;53.468;9.826;2022-09-28T17:25:47;12.70;95.20
44166;DHT22;30476;53.468;9.826;2022-09-28T17:28:19;12.60;95.20
44166;DHT22;30476;53.468;9.826;2022-09-28T17:30:46;12.60;95.40
44166;DHT22;30476;53.468;9.826;2022-09-28T17:33:13;12.50;95.50
44166;DHT22;30476;53.468;9.826;2022-09-28T17:35:40;12.40;95.60
44166;DHT22;30476;53.468;9.826;2022-09-28T17:38:08;12.40;95.70
44166;DHT22;30476;53.468;9.826;2022-09-28T17:40:34;12.40;95.80
44166;DHT22;30476;53.468;9.826;2022-09-28T17:42:59;12.30;95.80
44166;DHT22;30476;53.468;9.826;2022-09-28T17:45:26;12.30;95.90
44166;DHT22;30476;53.468;9.826;2022-09-28T17:47:56;12.20;95.90
44166;DHT22;30476;53.468;9.826;2022-09-28T17:50:27;12.10;95.80
44166;DHT22;30476;53.468;9.826;2022-09-28T17:52:55;12.10;95.90
44166;DHT22;30476;53.468;9.826;2022-09-28T17:55:27;12.00;96.00
44166;DHT22;30476;53.468;9.826;2022-09-28T17:57:54;12.00;95.90
44166;DHT22;30476;53.468;9.826;2022-09-28T18:00:21;11.90;96.00
44166;DHT22;30476;53.468;9.826;2022-09-28T18:02:47;11.90;96.00
44166;DHT22;30476;53.468;9.826;2022-09-28T18:05:15;11.90;96.10
44166;DHT22;30476;53.468;9.826;2022-09-28T18:07:41;11.80;96.30
44166;DHT22;30476;53.468;9.826;2022-09-28T18:10:16;11.80;96.40
44166;DHT22;30476;53.468;9.826;2022-09-28T18:12:44;11.70;96.40
44166;DHT22;30476;53.468;9.826;2022-09-28T18:15:11;11.70;96.40
44166;DHT22;30476;53.468;9.826;2022-09-28T18:17:37;11.60;96.40
44166;DHT22;30476;53.468;9.826;2022-09-28T18:20:04;11.60;96.50
44166;DHT22;30476;53.468;9.826;2022-09-28T18:22:31;11.60;96.60
44166;DHT22;30476;53.468;9.826;2022-09-28T18:24:56;11.50;96.60
44166;DHT22;30476;53.468;9.826;2022-09-28T18:27:22;11.50;96.50
44166;DHT22;30476;53.468;9.826;2022-09-28T18:29:48;11.40;96.70
44166;DHT22;30476;53.468;9.826;2022-09-28T18:32:14;11.40;96.70
44166;DHT22;30476;53.468;9.826;2022-09-28T18:34:40;11.40;96.70
44166;DHT22;30476;53.468;9.826;2022-09-28T18:37:06;11.30;96.70
44166;DHT22;30476;53.468;9.826;2022-09-28T18:39:33;11.30;96.80